createdAt,value
2023-02-13T00:00:47.485Z,66.83
2023-02-13T00:01:49.009Z,66.30
2023-02-13T00:02:50.743Z,66.51
2023-02-13T00:03:52.247Z,66.34
2023-02-13T00:04:53.762Z,66.52
2023-02-13T00:05:55.291Z,67.07
2023-02-13T00:06:56.880Z,66.44
2023-02-13T00:07:58.353Z,66.78
2023-02-13T00:08:59.871Z,67.38
2023-02-13T00:10:01.406Z,67.08
2023-02-13T00:11:02.957Z,66.94
2023-02-13T00:12:04.835Z,66.57
2023-02-13T00:13:06.348Z,67.21
2023-02-13T00:14:07.889Z,66.76
2023-02-13T00:15:09.533Z,66.72
2023-02-13T00:16:11.160Z,67.25
2023-02-13T00:17:12.680Z,66.61
2023-02-13T00:18:14.174Z,66.51
2023-02-13T00:19:15.663Z,66.62
2023-02-13T00:20:17.211Z,66.54
2023-02-13T00:21:18.705Z,66.40
2023-02-13T00:22:20.191Z,66.59
2023-02-13T00:23:21.738Z,66.69
2023-02-13T00:24:23.215Z,66.71
2023-02-13T00:25:24.726Z,66.80
2023-02-13T00:26:26.274Z,66.57
2023-02-13T00:27:27.738Z,66.39
2023-02-13T00:28:29.373Z,66.70
2023-02-13T00:29:30.893Z,66.70
2023-02-13T00:30:32.440Z,66.57
2023-02-13T00:31:33.994Z,66.65
2023-02-13T00:32:35.581Z,66.42
2023-02-13T00:33:37.101Z,66.45
2023-02-13T00:34:38.559Z,66.20
2023-02-13T00:35:40.067Z,66.26
2023-02-13T00:36:41.582Z,66.43
2023-02-13T00:37:43.069Z,66.41
2023-02-13T00:38:44.641Z,66.91
2023-02-13T00:39:46.690Z,66.79
2023-02-13T00:40:48.167Z,67.33
2023-02-13T00:41:49.839Z,66.64
2023-02-13T00:42:51.352Z,66.77
2023-02-13T00:43:52.818Z,66.69
2023-02-13T00:44:54.464Z,67.00
2023-02-13T00:45:56.044Z,66.87
2023-02-13T00:46:59.310Z,66.93
2023-02-13T00:48:00.798Z,66.88
2023-02-13T00:49:02.267Z,67.12
2023-02-13T00:50:03.869Z,67.27
2023-02-13T00:51:05.670Z,67.51
2023-02-13T00:52:07.150Z,67.26
2023-02-13T00:53:08.654Z,67.08
2023-02-13T00:54:10.168Z,67.12
2023-02-13T00:55:11.745Z,67.46
2023-02-13T00:56:13.231Z,67.63
2023-02-13T00:57:17.151Z,67.67
2023-02-13T00:58:18.890Z,67.09
2023-02-13T00:59:20.428Z,66.97
2023-02-13T01:00:21.984Z,67.16
2023-02-13T01:01:23.570Z,67.19
2023-02-13T01:02:25.213Z,67.20
2023-02-13T01:03:26.778Z,66.96
2023-02-13T01:04:28.308Z,66.74
2023-02-13T01:05:31.956Z,66.69
2023-02-13T01:06:33.416Z,67.10
2023-02-13T01:07:35.008Z,67.08
2023-02-13T01:08:38.731Z,66.84
2023-02-13T01:09:40.255Z,66.82
2023-02-13T01:10:41.972Z,66.83
2023-02-13T01:11:43.461Z,66.60
2023-02-13T01:12:45.051Z,66.92
2023-02-13T01:13:46.544Z,66.71
2023-02-13T01:14:48.072Z,66.78
2023-02-13T01:15:49.704Z,67.48
2023-02-13T01:16:51.327Z,67.08
2023-02-13T01:17:53.609Z,67.66
2023-02-13T01:18:55.133Z,67.26
2023-02-13T01:19:57.650Z,67.45
2023-02-13T01:21:00.292Z,67.02
2023-02-13T01:22:01.909Z,67.25
2023-02-13T01:23:03.608Z,66.82
2023-02-13T01:24:05.308Z,66.90
2023-02-13T01:25:06.954Z,66.68
2023-02-13T01:26:08.665Z,67.06
2023-02-13T01:27:10.172Z,67.26
2023-02-13T01:28:11.742Z,67.28
2023-02-13T01:29:13.512Z,67.12
2023-02-13T01:30:15.477Z,67.33
2023-02-13T01:31:17.211Z,67.00
2023-02-13T01:32:18.772Z,67.17
2023-02-13T01:33:21.023Z,66.63
2023-02-13T01:34:22.493Z,66.92
2023-02-13T01:35:23.934Z,66.91
2023-02-13T01:36:25.512Z,67.29
2023-02-13T01:37:28.183Z,66.75
2023-02-13T01:38:29.663Z,67.24
2023-02-13T01:39:31.382Z,66.77
2023-02-13T01:40:32.889Z,66.79
2023-02-13T01:41:35.307Z,66.84
2023-02-13T01:42:36.797Z,66.83
2023-02-13T01:43:44.268Z,66.94
2023-02-13T01:44:45.693Z,67.04
2023-02-13T01:45:49.954Z,66.48
2023-02-13T01:46:53.126Z,66.86
2023-02-13T01:47:58.498Z,66.41
2023-02-13T01:49:03.172Z,66.86
2023-02-13T01:50:12.345Z,67.12
2023-02-13T01:51:16.048Z,66.58
2023-02-13T01:52:17.596Z,67.24
2023-02-13T01:53:51.230Z,67.08
2023-02-13T01:54:53.867Z,67.46
2023-02-13T01:56:05.753Z,67.52
2023-02-13T01:57:08.719Z,67.56
2023-02-13T01:58:12.631Z,67.53
2023-02-13T01:59:16.128Z,67.19
2023-02-13T02:00:17.849Z,67.04
2023-02-13T02:01:19.515Z,67.34
2023-02-13T02:02:22.977Z,67.71
2023-02-13T02:03:35.733Z,67.58
2023-02-13T02:04:41.326Z,67.16
2023-02-13T02:05:48.443Z,67.32
2023-02-13T02:06:51.054Z,67.54
2023-02-13T02:07:59.686Z,67.35
2023-02-13T02:09:06.107Z,67.17
2023-02-13T02:10:08.756Z,67.32
2023-02-13T02:11:14.120Z,67.52
2023-02-13T02:12:30.518Z,67.54
2023-02-13T02:13:32.044Z,67.27
2023-02-13T02:14:39.057Z,67.41
2023-02-13T02:15:42.630Z,67.50
2023-02-13T02:16:44.134Z,67.54
2023-02-13T02:17:45.737Z,67.56
2023-02-13T02:18:47.228Z,67.11
2023-02-13T02:19:48.710Z,67.60
2023-02-13T02:21:08.522Z,67.32
2023-02-13T02:22:21.932Z,67.68
2023-02-13T02:23:32.334Z,67.13
2023-02-13T02:24:40.621Z,67.36
2023-02-13T02:25:44.977Z,67.73
2023-02-13T02:27:05.523Z,67.16
2023-02-13T02:28:27.083Z,66.89
2023-02-13T02:29:28.654Z,67.12
2023-02-13T02:30:30.164Z,67.00
2023-02-13T02:31:44.051Z,67.11
2023-02-13T02:32:53.539Z,67.51
2023-02-13T02:34:09.327Z,66.83
2023-02-13T02:35:23.702Z,67.40
2023-02-13T02:36:35.464Z,67.16
2023-02-13T02:37:46.247Z,67.16
2023-02-13T02:38:47.962Z,67.30
2023-02-13T02:40:07.917Z,67.11
2023-02-13T02:41:09.991Z,67.24
2023-02-13T02:42:23.809Z,67.14
2023-02-13T02:43:28.137Z,67.48
2023-02-13T02:44:56.001Z,66.97
2023-02-13T02:46:12.394Z,66.76
2023-02-13T02:47:32.543Z,66.85
2023-02-13T02:48:55.605Z,66.88
2023-02-13T02:50:11.510Z,67.39
2023-02-13T02:51:27.278Z,67.18
2023-02-13T02:52:54.558Z,66.88
2023-02-13T02:54:32.098Z,67.18
2023-02-13T02:55:37.660Z,67.08
2023-02-13T02:56:42.952Z,67.43
2023-02-13T02:58:04.334Z,67.25
2023-02-13T02:59:26.597Z,67.47
2023-02-13T03:00:46.903Z,66.74
2023-02-13T03:02:08.790Z,67.48
2023-02-13T03:03:38.762Z,67.08
2023-02-13T03:04:59.084Z,67.16
2023-02-13T03:06:14.305Z,67.22
2023-02-13T03:07:16.588Z,67.30
2023-02-13T03:08:38.039Z,67.38
2023-02-13T03:09:58.986Z,66.93
2023-02-13T03:11:19.308Z,67.24
2023-02-13T03:12:40.341Z,67.49
2023-02-13T03:13:45.061Z,67.51
2023-02-13T03:14:46.528Z,67.62
2023-02-13T03:16:07.739Z,67.41
2023-02-13T03:17:29.477Z,67.39
2023-02-13T03:18:49.961Z,67.03
2023-02-13T03:20:45.392Z,67.15
2023-02-13T03:22:15.310Z,66.90
2023-02-13T03:23:35.416Z,67.16
2023-02-13T03:24:48.626Z,67.22
2023-02-13T03:26:13.078Z,67.09
2023-02-13T03:27:40.978Z,67.54
2023-02-13T03:29:00.749Z,67.54
2023-02-13T03:30:07.131Z,67.32
2023-02-13T03:31:12.864Z,67.58
2023-02-13T03:32:20.847Z,67.59
2023-02-13T03:33:22.312Z,67.94
2023-02-13T03:34:23.986Z,67.50
2023-02-13T03:35:50.392Z,67.63
2023-02-13T03:37:18.390Z,67.14
2023-02-13T03:38:40.162Z,67.45
2023-02-13T03:39:56.849Z,67.78
2023-02-13T03:41:17.858Z,67.53
2023-02-13T03:42:19.317Z,67.06
2023-02-13T03:43:20.813Z,67.58
2023-02-13T03:44:29.182Z,67.31
2023-02-13T03:45:49.876Z,67.56
2023-02-13T03:46:51.542Z,67.38
2023-02-13T03:47:53.436Z,67.24
2023-02-13T03:49:13.481Z,67.42
2023-02-13T03:50:15.062Z,67.58
2023-02-13T03:51:25.088Z,67.38
2023-02-13T03:52:29.298Z,67.19
2023-02-13T03:53:31.584Z,67.41
2023-02-13T03:54:53.337Z,67.04
2023-02-13T03:56:13.326Z,67.43
2023-02-13T03:57:34.149Z,67.08
2023-02-13T03:58:54.930Z,67.35
2023-02-13T03:59:56.441Z,67.76
2023-02-13T04:00:58.958Z,67.76
2023-02-13T04:02:03.647Z,67.48
2023-02-13T04:03:13.807Z,67.55
2023-02-13T04:04:22.997Z,67.50
2023-02-13T04:05:28.377Z,67.40
2023-02-13T04:06:33.406Z,67.38
2023-02-13T04:07:35.511Z,67.64
2023-02-13T04:08:36.969Z,67.53
2023-02-13T04:09:39.265Z,67.69
2023-02-13T04:11:09.762Z,67.57
2023-02-13T04:12:21.226Z,67.67
2023-02-13T04:13:27.572Z,67.25
2023-02-13T04:14:30.970Z,67.53
2023-02-13T04:15:52.788Z,67.28
2023-02-13T04:16:58.047Z,67.80
2023-02-13T04:18:03.551Z,67.85
2023-02-13T04:19:05.308Z,68.00
2023-02-13T04:20:07.212Z,67.85
2023-02-13T04:21:08.802Z,67.37
2023-02-13T04:22:11.456Z,67.54
2023-02-13T04:23:12.940Z,67.41
2023-02-13T04:24:14.413Z,67.29
2023-02-13T04:25:16.273Z,67.55
2023-02-13T04:26:18.867Z,67.50
2023-02-13T04:27:20.308Z,67.14
2023-02-13T04:28:21.946Z,67.20
2023-02-13T04:29:23.604Z,66.76
2023-02-13T04:30:25.127Z,66.93
2023-02-13T04:31:26.822Z,66.95
2023-02-13T04:32:28.979Z,66.95
2023-02-13T04:33:30.541Z,67.17
2023-02-13T04:34:32.039Z,67.10
2023-02-13T04:35:33.539Z,67.20
2023-02-13T04:36:35.065Z,67.35
2023-02-13T04:37:36.539Z,67.12
2023-02-13T04:38:38.093Z,66.89
2023-02-13T04:39:39.617Z,67.26
2023-02-13T04:40:41.070Z,67.25
2023-02-13T04:41:42.679Z,67.21
2023-02-13T04:42:44.216Z,67.21
2023-02-13T04:43:45.695Z,67.04
2023-02-13T04:44:47.153Z,67.28
2023-02-13T04:45:49.085Z,66.90
2023-02-13T04:46:50.674Z,67.00
2023-02-13T04:47:52.660Z,67.16
2023-02-13T04:48:54.148Z,67.16
2023-02-13T04:49:55.585Z,67.59
2023-02-13T04:50:57.266Z,67.71
2023-02-13T04:51:58.964Z,67.55
2023-02-13T04:53:00.448Z,68.15
2023-02-13T04:54:01.965Z,68.28
2023-02-13T04:55:04.013Z,67.66
2023-02-13T04:56:05.533Z,68.10
2023-02-13T04:57:07.048Z,67.99
2023-02-13T04:58:08.561Z,68.13
2023-02-13T04:59:09.997Z,67.83
2023-02-13T05:00:11.926Z,68.04
2023-02-13T05:01:14.045Z,67.69
2023-02-13T05:02:15.635Z,67.77
2023-02-13T05:03:17.100Z,67.85
2023-02-13T05:04:18.680Z,67.64
2023-02-13T05:05:20.242Z,67.67
2023-02-13T05:06:21.711Z,67.56
2023-02-13T05:07:23.218Z,67.76
2023-02-13T05:08:24.671Z,67.50
2023-02-13T05:09:26.181Z,67.10
2023-02-13T05:10:27.856Z,67.47
2023-02-13T05:11:29.336Z,67.60
2023-02-13T05:12:30.821Z,67.31
2023-02-13T05:13:32.512Z,67.34
2023-02-13T05:14:33.967Z,67.44
2023-02-13T05:15:35.477Z,67.22
2023-02-13T05:16:37.023Z,67.74
2023-02-13T05:17:38.527Z,67.37
2023-02-13T05:18:40.038Z,67.67
2023-02-13T05:19:41.488Z,67.34
2023-02-13T05:20:42.993Z,67.24
2023-02-13T05:22:03.149Z,67.38
2023-02-13T05:23:22.955Z,67.59
2023-02-13T05:24:24.481Z,67.42
2023-02-13T05:25:26.198Z,67.75
2023-02-13T05:26:27.661Z,67.58
2023-02-13T05:27:29.192Z,67.63
2023-02-13T05:28:49.031Z,67.44
2023-02-13T05:29:50.496Z,67.70
2023-02-13T05:30:52.301Z,67.71
2023-02-13T05:31:54.536Z,67.82
2023-02-13T05:32:56.153Z,67.43
2023-02-13T05:33:57.682Z,67.68
2023-02-13T05:34:59.156Z,67.54
2023-02-13T05:36:00.635Z,67.43
2023-02-13T05:37:02.210Z,67.38
2023-02-13T05:38:03.656Z,67.35
2023-02-13T05:39:05.452Z,67.47
2023-02-13T05:40:07.267Z,67.71
2023-02-13T05:41:08.802Z,67.83
2023-02-13T05:42:10.998Z,67.55
2023-02-13T05:43:12.501Z,67.58
2023-02-13T05:44:14.022Z,67.67
2023-02-13T05:45:16.192Z,67.74
2023-02-13T05:46:17.721Z,67.62
2023-02-13T05:47:19.242Z,67.64
2023-02-13T05:48:20.732Z,67.36
2023-02-13T05:49:22.964Z,67.53
2023-02-13T05:50:24.470Z,67.92
2023-02-13T05:51:25.984Z,67.87
2023-02-13T05:52:27.481Z,67.93
2023-02-13T05:53:29.869Z,67.73
2023-02-13T05:54:31.377Z,68.14
2023-02-13T05:55:32.881Z,68.12
2023-02-13T05:56:34.398Z,68.59
2023-02-13T05:57:35.939Z,68.40
2023-02-13T05:58:37.427Z,67.89
2023-02-13T05:59:38.973Z,68.37
2023-02-13T06:00:40.468Z,68.23
2023-02-13T06:01:41.924Z,68.17
2023-02-13T06:02:43.539Z,67.70
2023-02-13T06:03:45.100Z,67.83
2023-02-13T06:04:46.638Z,67.75
2023-02-13T06:05:48.126Z,67.47
2023-02-13T06:06:49.597Z,67.94
2023-02-13T06:07:51.093Z,67.51
2023-02-13T06:08:52.559Z,67.66
2023-02-13T06:09:54.049Z,67.28
2023-02-13T06:10:55.564Z,67.83
2023-02-13T06:11:57.081Z,67.57
2023-02-13T06:12:58.577Z,67.90
2023-02-13T06:14:00.101Z,67.98
2023-02-13T06:15:01.614Z,67.90
2023-02-13T06:16:03.379Z,67.81
2023-02-13T06:17:04.906Z,67.92
2023-02-13T06:18:06.433Z,68.47
2023-02-13T06:19:07.966Z,67.91
2023-02-13T06:20:09.582Z,67.97
2023-02-13T06:21:11.049Z,67.93
2023-02-13T06:22:12.543Z,67.73
2023-02-13T06:23:14.041Z,68.07
2023-02-13T06:24:15.590Z,67.90
2023-02-13T06:25:17.189Z,67.93
2023-02-13T06:26:18.954Z,67.76
2023-02-13T06:27:20.552Z,67.57
2023-02-13T06:28:22.126Z,67.66
2023-02-13T06:29:23.613Z,67.40
2023-02-13T06:30:25.108Z,67.54
2023-02-13T06:31:26.808Z,67.46
2023-02-13T06:32:28.366Z,67.39
2023-02-13T06:33:29.860Z,67.48
2023-02-13T06:34:31.382Z,67.75
2023-02-13T06:35:32.910Z,67.93
2023-02-13T06:36:34.421Z,67.71
2023-02-13T06:37:35.963Z,68.04
2023-02-13T06:38:37.471Z,68.23
2023-02-13T06:39:38.961Z,67.97
2023-02-13T06:40:40.454Z,67.97
2023-02-13T06:41:41.928Z,67.99
2023-02-13T06:42:43.701Z,67.99
2023-02-13T06:43:45.237Z,68.05
2023-02-13T06:44:46.677Z,67.73
2023-02-13T06:45:48.192Z,68.08
2023-02-13T06:46:49.762Z,68.43
2023-02-13T06:47:51.864Z,69.22
2023-02-13T06:48:53.947Z,69.73
2023-02-13T06:49:55.426Z,68.97
2023-02-13T06:50:57.194Z,68.74
2023-02-13T06:51:58.835Z,68.45
2023-02-13T06:53:00.344Z,68.21
2023-02-13T06:54:02.685Z,68.20
2023-02-13T06:55:05.186Z,68.13
2023-02-13T06:56:07.581Z,67.81
2023-02-13T06:57:09.030Z,68.04
2023-02-13T06:58:10.503Z,67.79
2023-02-13T06:59:12.049Z,68.01
2023-02-13T07:00:14.233Z,67.68
2023-02-13T07:01:15.850Z,67.80
2023-02-13T07:02:17.380Z,67.71
2023-02-13T07:03:18.917Z,67.68
2023-02-13T07:04:20.403Z,67.92
2023-02-13T07:05:21.905Z,68.50
2023-02-13T07:06:23.396Z,68.81
2023-02-13T07:07:24.853Z,69.17
2023-02-13T07:08:26.316Z,69.25
2023-02-13T07:09:27.920Z,68.83
2023-02-13T07:10:29.479Z,68.66
2023-02-13T07:11:31.214Z,68.54
2023-02-13T07:12:33.069Z,68.46
2023-02-13T07:13:34.531Z,68.00
2023-02-13T07:14:36.044Z,68.16
2023-02-13T07:15:37.683Z,67.45
2023-02-13T07:16:39.161Z,67.44
2023-02-13T07:17:40.646Z,67.16
2023-02-13T07:18:42.177Z,67.00
2023-02-13T07:19:43.659Z,66.78
2023-02-13T07:20:45.250Z,66.57
2023-02-13T07:21:46.746Z,66.57
2023-02-13T07:22:48.223Z,66.40
2023-02-13T07:23:49.723Z,65.49
2023-02-13T07:24:51.237Z,65.16
2023-02-13T07:25:52.756Z,64.90
2023-02-13T07:26:54.316Z,65.59
2023-02-13T07:27:55.781Z,65.12
2023-02-13T07:29:10.402Z,65.63
2023-02-13T07:30:12.258Z,65.60
2023-02-13T07:31:13.893Z,65.11
2023-02-13T07:32:15.438Z,66.36
2023-02-13T07:33:16.900Z,66.57
2023-02-13T07:34:18.368Z,66.44
2023-02-13T07:35:19.856Z,67.08
2023-02-13T07:36:21.357Z,66.72
2023-02-13T07:37:22.858Z,66.41
2023-02-13T07:38:24.331Z,65.49
2023-02-13T07:39:25.786Z,65.33
2023-02-13T07:40:27.496Z,64.65
2023-02-13T07:41:28.985Z,64.43
2023-02-13T07:42:34.340Z,64.07
2023-02-13T07:43:35.826Z,63.28
2023-02-13T07:44:37.309Z,63.60
2023-02-13T07:45:38.821Z,63.46
2023-02-13T07:46:40.487Z,62.51
2023-02-13T07:47:42.325Z,61.89
2023-02-13T07:48:43.772Z,61.99
2023-02-13T07:49:45.313Z,61.92
2023-02-13T07:50:46.813Z,61.86
2023-02-13T07:51:48.327Z,61.36
2023-02-13T07:52:53.219Z,61.11
2023-02-13T07:53:56.529Z,61.28
2023-02-13T07:54:58.082Z,61.20
2023-02-13T07:55:59.795Z,61.12
2023-02-13T07:57:01.476Z,61.34
2023-02-13T07:58:02.929Z,61.40
2023-02-13T07:59:05.795Z,61.18
2023-02-13T08:00:08.653Z,60.56
2023-02-13T08:01:13.985Z,60.36
2023-02-13T08:02:15.643Z,60.46
2023-02-13T08:03:17.210Z,60.53
2023-02-13T08:04:18.712Z,60.20
2023-02-13T08:05:20.197Z,60.24
2023-02-13T08:06:21.664Z,60.40
2023-02-13T08:07:23.181Z,60.20
2023-02-13T08:08:24.727Z,60.01
2023-02-13T08:09:44.724Z,59.95
2023-02-13T08:11:04.615Z,59.67
2023-02-13T08:12:07.057Z,59.29
2023-02-13T08:13:08.663Z,59.06
2023-02-13T08:14:10.226Z,58.89
2023-02-13T08:15:12.112Z,58.85
2023-02-13T08:16:13.653Z,58.74
2023-02-13T08:17:15.188Z,58.53
2023-02-13T08:18:18.859Z,58.17
2023-02-13T08:19:21.198Z,58.05
2023-02-13T08:20:24.027Z,58.33
2023-02-13T08:21:25.559Z,58.33
2023-02-13T08:22:27.020Z,58.68
2023-02-13T08:23:28.741Z,58.15
2023-02-13T08:24:30.297Z,57.99
2023-02-13T08:25:31.970Z,57.84
2023-02-13T08:26:33.546Z,57.81
2023-02-13T08:27:35.182Z,57.47
2023-02-13T08:28:36.917Z,57.17
2023-02-13T08:29:38.493Z,57.12
2023-02-13T08:30:40.033Z,56.60
2023-02-13T08:31:41.671Z,56.35
2023-02-13T08:32:53.897Z,56.53
2023-02-13T08:33:56.421Z,56.32
2023-02-13T08:34:57.902Z,56.41
2023-02-13T08:35:59.537Z,56.02
2023-02-13T08:37:01.629Z,55.42
2023-02-13T08:38:03.822Z,55.28
2023-02-13T08:39:05.370Z,55.42
2023-02-13T08:40:12.210Z,55.16
2023-02-13T08:41:14.008Z,54.43
2023-02-13T08:42:16.344Z,54.50
2023-02-13T08:43:18.030Z,53.96
2023-02-13T08:44:19.549Z,53.86
2023-02-13T08:45:21.011Z,53.35
2023-02-13T08:46:22.682Z,53.26
2023-02-13T08:47:24.215Z,53.22
2023-02-13T08:48:26.280Z,52.95
2023-02-13T08:49:27.773Z,52.67
2023-02-13T08:50:29.325Z,52.42
2023-02-13T08:51:30.834Z,52.55
2023-02-13T08:52:32.285Z,52.08
2023-02-13T08:53:34.025Z,51.77
2023-02-13T08:54:36.378Z,51.48
2023-02-13T08:55:37.826Z,51.22
2023-02-13T08:56:39.320Z,51.16
2023-02-13T08:57:40.838Z,50.74
2023-02-13T08:58:42.294Z,50.53
2023-02-13T08:59:44.077Z,50.85
2023-02-13T09:00:45.568Z,50.74
2023-02-13T09:01:47.074Z,50.65
2023-02-13T09:02:48.688Z,50.41
2023-02-13T09:03:50.233Z,49.93
2023-02-13T09:04:51.726Z,50.42
2023-02-13T09:05:53.187Z,50.43
2023-02-13T09:06:54.738Z,49.37
2023-02-13T09:07:56.247Z,49.96
2023-02-13T09:08:57.861Z,49.79
2023-02-13T09:09:59.340Z,49.88
2023-02-13T09:11:01.412Z,49.35
2023-02-13T09:12:02.946Z,49.83
2023-02-13T09:13:04.474Z,49.60
2023-02-13T09:14:05.971Z,49.19
2023-02-13T09:15:07.593Z,49.32
2023-02-13T09:16:10.101Z,49.29
2023-02-13T09:17:11.628Z,49.02
2023-02-13T09:18:13.106Z,49.21
2023-02-13T09:19:14.596Z,49.02
2023-02-13T09:20:16.115Z,48.84
2023-02-13T09:21:17.848Z,49.01
2023-02-13T09:22:19.365Z,48.55
2023-02-13T09:23:20.895Z,47.28
2023-02-13T09:24:22.382Z,47.69
2023-02-13T09:25:23.901Z,47.35
2023-02-13T09:26:25.414Z,46.87
2023-02-13T09:27:26.966Z,46.83
2023-02-13T09:28:31.874Z,47.18
2023-02-13T09:29:33.878Z,46.87
2023-02-13T09:30:35.511Z,45.96
2023-02-13T09:31:37.143Z,45.61
2023-02-13T09:32:39.005Z,45.78
2023-02-13T09:33:40.575Z,45.35
2023-02-13T09:34:42.055Z,45.43
2023-02-13T09:35:46.297Z,45.03
2023-02-13T09:36:51.417Z,45.12
2023-02-13T09:37:52.910Z,44.51
2023-02-13T09:38:55.082Z,44.70
2023-02-13T09:39:56.665Z,44.60
2023-02-13T09:40:59.813Z,44.74
2023-02-13T09:42:01.384Z,44.13
2023-02-13T09:43:13.695Z,43.65
2023-02-13T09:44:33.922Z,43.43
2023-02-13T09:45:35.684Z,43.70
2023-02-13T09:46:37.943Z,43.52
2023-02-13T09:47:39.960Z,42.52
2023-02-13T09:48:41.985Z,42.07
2023-02-13T09:49:44.796Z,42.40
2023-02-13T09:50:46.278Z,42.71
2023-02-13T09:51:48.570Z,42.40
2023-02-13T09:52:51.062Z,42.47
2023-02-13T09:53:59.597Z,42.09
2023-02-13T09:55:04.445Z,42.56
2023-02-13T09:56:09.885Z,41.83
2023-02-13T09:57:28.948Z,41.64
2023-02-13T09:58:30.442Z,41.58
2023-02-13T09:59:51.330Z,41.95
2023-02-13T10:00:53.821Z,41.76
2023-02-13T10:01:55.461Z,41.70
2023-02-13T10:02:56.992Z,41.58
2023-02-13T10:04:01.622Z,40.78
2023-02-13T10:05:10.979Z,40.77
2023-02-13T10:06:15.016Z,40.90
2023-02-13T10:07:28.370Z,41.23
2023-02-13T10:09:05.193Z,41.17
2023-02-13T10:10:12.567Z,41.13
2023-02-13T10:11:16.719Z,40.64
2023-02-13T10:12:36.927Z,39.75
2023-02-13T10:13:56.799Z,39.49
2023-02-13T10:15:04.344Z,39.63
2023-02-13T10:16:06.260Z,39.69
2023-02-13T10:17:07.974Z,39.57
2023-02-13T10:18:13.066Z,39.26
2023-02-13T10:19:14.527Z,39.54
2023-02-13T10:20:27.603Z,39.21
2023-02-13T10:21:30.650Z,39.02
2023-02-13T10:22:38.062Z,38.77
2023-02-13T10:23:43.672Z,38.75
2023-02-13T10:24:52.770Z,38.44
2023-02-13T10:25:58.510Z,38.62
2023-02-13T10:27:00.834Z,38.69
2023-02-13T10:28:06.697Z,38.07
2023-02-13T10:29:38.968Z,38.34
2023-02-13T10:30:45.573Z,37.79
2023-02-13T10:31:47.337Z,37.46
2023-02-13T10:33:20.885Z,36.89
2023-02-13T10:34:22.657Z,37.26
2023-02-13T10:35:26.689Z,37.27
2023-02-13T10:36:30.289Z,37.41
2023-02-13T10:37:31.970Z,36.29
2023-02-13T10:38:34.163Z,36.28
2023-02-13T10:39:35.625Z,36.40
2023-02-13T10:40:38.344Z,36.89
2023-02-13T10:41:43.032Z,36.63
2023-02-13T10:42:45.403Z,35.96
2023-02-13T10:44:05.521Z,36.26
2023-02-13T10:45:26.723Z,36.08
2023-02-13T10:46:50.046Z,35.89
2023-02-13T10:48:09.862Z,36.06
2023-02-13T10:49:17.345Z,34.87
2023-02-13T10:50:19.552Z,34.27
2023-02-13T10:51:33.596Z,33.85
2023-02-13T10:52:41.252Z,34.38
2023-02-13T10:53:45.574Z,34.87
2023-02-13T10:55:19.560Z,34.76
2023-02-13T10:56:25.474Z,34.20
2023-02-13T10:57:44.825Z,34.35
2023-02-13T10:58:55.607Z,34.43
2023-02-13T11:00:04.807Z,34.26
2023-02-13T11:01:07.440Z,34.36
2023-02-13T11:02:25.889Z,34.04
2023-02-13T11:03:27.924Z,34.54
2023-02-13T11:04:29.644Z,34.86
2023-02-13T11:05:31.223Z,34.50
2023-02-13T11:06:33.585Z,34.56
2023-02-13T11:07:35.059Z,34.24
2023-02-13T11:08:40.337Z,33.72
2023-02-13T11:09:42.398Z,34.46
2023-02-13T11:10:43.994Z,34.02
2023-02-13T11:11:45.478Z,34.50
2023-02-13T11:12:47.019Z,34.10
2023-02-13T11:13:48.532Z,34.13
2023-02-13T11:14:53.634Z,34.02
2023-02-13T11:15:58.097Z,34.05
2023-02-13T11:17:03.389Z,34.06
2023-02-13T11:18:15.756Z,34.81
2023-02-13T11:19:22.280Z,33.71
2023-02-13T11:20:35.868Z,33.81
2023-02-13T11:21:38.659Z,33.71
2023-02-13T11:22:42.524Z,34.28
2023-02-13T11:23:44.399Z,35.34
2023-02-13T11:25:11.969Z,35.45
2023-02-13T11:26:28.756Z,35.68
2023-02-13T11:27:34.214Z,35.95
2023-02-13T11:28:36.973Z,35.51
2023-02-13T11:29:38.609Z,35.21
2023-02-13T11:30:40.125Z,35.02
2023-02-13T11:31:41.734Z,35.08
2023-02-13T11:32:43.298Z,35.15
2023-02-13T11:33:44.901Z,35.02
2023-02-13T11:34:46.609Z,34.86
2023-02-13T11:35:48.254Z,34.84
2023-02-13T11:36:52.881Z,34.94
2023-02-13T11:38:14.666Z,35.07
2023-02-13T11:39:19.689Z,35.80
2023-02-13T11:40:29.355Z,36.06
2023-02-13T11:41:31.273Z,35.64
2023-02-13T11:42:34.459Z,35.58
2023-02-13T11:43:37.450Z,35.94
2023-02-13T11:44:39.016Z,36.51
2023-02-13T11:45:40.732Z,36.94
2023-02-13T11:46:49.082Z,37.10
2023-02-13T11:47:50.643Z,36.29
2023-02-13T11:48:58.158Z,36.88
2023-02-13T11:49:59.634Z,37.02
2023-02-13T11:51:01.095Z,37.68
2023-02-13T11:52:03.267Z,37.90
2023-02-13T11:53:05.626Z,38.24
2023-02-13T11:54:07.124Z,38.36
2023-02-13T11:55:26.520Z,38.10
2023-02-13T11:56:28.028Z,37.70
2023-02-13T11:57:33.471Z,38.09
2023-02-13T11:58:35.134Z,38.03
2023-02-13T11:59:40.564Z,37.78
2023-02-13T12:00:42.352Z,37.36
2023-02-13T12:01:44.429Z,37.51
2023-02-13T12:02:47.427Z,37.69
2023-02-13T12:04:02.441Z,38.22
2023-02-13T12:05:39.455Z,38.01
2023-02-13T12:06:41.013Z,37.82
2023-02-13T12:07:42.793Z,38.09
2023-02-13T12:08:45.192Z,38.12
2023-02-13T12:09:47.835Z,37.96
2023-02-13T12:10:49.314Z,37.18
2023-02-13T12:11:54.413Z,37.40
2023-02-13T12:13:15.521Z,37.53
2023-02-13T12:14:19.655Z,37.88
2023-02-13T12:15:25.317Z,37.65
2023-02-13T12:16:26.805Z,37.70
2023-02-13T12:17:32.467Z,38.09
2023-02-13T12:18:40.635Z,38.18
2023-02-13T12:19:42.702Z,38.06
2023-02-13T12:20:44.137Z,38.28
2023-02-13T12:22:03.853Z,38.84
2023-02-13T12:23:17.294Z,38.93
2023-02-13T12:24:21.585Z,39.30
2023-02-13T12:25:28.605Z,39.38
2023-02-13T12:26:31.848Z,39.14
2023-02-13T12:27:42.859Z,38.85
2023-02-13T12:28:44.338Z,39.12
2023-02-13T12:30:09.647Z,39.04
2023-02-13T12:31:23.386Z,38.70
2023-02-13T12:32:43.693Z,38.91
2023-02-13T12:33:56.163Z,39.15
2023-02-13T12:34:57.640Z,39.85
2023-02-13T12:36:02.434Z,39.64
2023-02-13T12:37:03.912Z,39.84
2023-02-13T12:38:24.274Z,39.91
2023-02-13T12:39:35.231Z,39.73
2023-02-13T12:40:40.361Z,39.68
2023-02-13T12:41:44.415Z,39.34
2023-02-13T12:42:48.892Z,39.01
2023-02-13T12:43:59.368Z,38.71
2023-02-13T12:45:01.044Z,38.98
2023-02-13T12:46:05.614Z,38.80
2023-02-13T12:47:09.816Z,38.73
2023-02-13T12:48:11.528Z,38.92
2023-02-13T12:49:31.255Z,39.17
2023-02-13T12:50:38.755Z,39.74
2023-02-13T12:52:05.850Z,39.64
2023-02-13T12:53:10.070Z,39.77
2023-02-13T12:54:11.612Z,39.91
2023-02-13T12:55:22.088Z,39.77
2023-02-13T12:56:23.574Z,39.60
2023-02-13T12:58:03.250Z,39.30
2023-02-13T12:59:16.484Z,39.23
2023-02-13T13:00:30.035Z,39.45
2023-02-13T13:01:43.574Z,39.46
2023-02-13T13:03:03.847Z,39.61
2023-02-13T13:04:24.040Z,39.80
2023-02-13T13:05:34.555Z,39.63
2023-02-13T13:06:39.161Z,39.25
2023-02-13T13:07:43.180Z,39.08
2023-02-13T13:08:53.606Z,39.35
2023-02-13T13:09:58.027Z,39.34
2023-02-13T13:11:06.459Z,38.26
2023-02-13T13:12:28.175Z,38.50
2023-02-13T13:13:42.470Z,38.53
2023-02-13T13:14:49.784Z,38.61
2023-02-13T13:16:09.668Z,38.68
2023-02-13T13:17:29.537Z,39.25
2023-02-13T13:18:33.861Z,39.44
2023-02-13T13:19:41.193Z,39.32
2023-02-13T13:20:46.872Z,39.54
2023-02-13T13:21:50.001Z,39.59
2023-02-13T13:22:54.598Z,39.58
2023-02-13T13:24:02.024Z,39.87
2023-02-13T13:25:03.477Z,39.83
2023-02-13T13:26:07.446Z,39.94
2023-02-13T13:27:23.434Z,40.12
2023-02-13T13:28:34.929Z,40.28
2023-02-13T13:30:05.545Z,40.21
2023-02-13T13:31:07.282Z,39.40
2023-02-13T13:32:08.880Z,39.35
2023-02-13T13:33:20.101Z,39.31
2023-02-13T13:34:23.353Z,39.39
2023-02-13T13:35:24.869Z,39.31
2023-02-13T13:36:44.373Z,39.49
2023-02-13T13:38:02.491Z,39.58
2023-02-13T13:39:03.957Z,39.64
2023-02-13T13:40:24.099Z,39.65
2023-02-13T13:41:31.137Z,39.88
2023-02-13T13:42:39.271Z,39.93
2023-02-13T13:43:54.614Z,40.07
2023-02-13T13:44:56.114Z,40.03
2023-02-13T13:46:02.452Z,39.62
2023-02-13T13:47:07.117Z,39.54
2023-02-13T13:48:18.320Z,39.53
2023-02-13T13:49:35.523Z,39.77
2023-02-13T13:50:39.102Z,40.04
2023-02-13T13:51:40.553Z,40.05
2023-02-13T13:52:42.075Z,39.89
2023-02-13T13:54:02.156Z,40.05
2023-02-13T13:55:04.496Z,39.94
2023-02-13T13:56:08.562Z,39.84
2023-02-13T13:57:11.898Z,39.92
2023-02-13T13:58:26.276Z,40.07
2023-02-13T13:59:33.500Z,40.05
2023-02-13T14:00:35.127Z,40.04
2023-02-13T14:01:36.713Z,39.57
2023-02-13T14:02:38.952Z,39.23